createdAt,value
2018-07-10T00:01:45.190Z,6.55
2018-07-10T00:04:27.786Z,8.30
2018-07-10T00:09:43.695Z,6.97
2018-07-10T00:12:12.147Z,8.90
2018-07-10T00:14:40.659Z,4.53
2018-07-10T00:17:09.105Z,6.90
2018-07-10T00:19:37.526Z,4.40
2018-07-10T00:22:06.107Z,5.37
2018-07-10T00:24:34.577Z,9.38
2018-07-10T00:27:03.132Z,4.22
2018-07-10T00:29:31.586Z,9.70
2018-07-10T00:32:00.054Z,6.72
2018-07-10T00:34:28.525Z,5.67
2018-07-10T00:36:56.961Z,5.70
2018-07-10T00:39:25.451Z,4.90
2018-07-10T00:41:53.893Z,8.45
2018-07-10T00:44:22.355Z,4.65
2018-07-10T00:46:50.847Z,5.83
2018-07-10T00:49:19.296Z,4.85
2018-07-10T00:51:47.808Z,6.58
2018-07-10T00:54:16.264Z,4.17
2018-07-10T00:56:44.906Z,4.75
2018-07-10T00:59:13.421Z,6.50
2018-07-10T01:01:41.868Z,6.95
2018-07-10T01:04:10.356Z,6.28
2018-07-10T01:06:38.829Z,4.22
2018-07-10T01:09:12.160Z,7.37
2018-07-10T01:11:41.434Z,6.05
2018-07-10T01:14:09.971Z,5.15
2018-07-10T01:16:39.382Z,4.95
2018-07-10T01:19:14.793Z,4.12
2018-07-10T01:21:44.099Z,5.65
2018-07-10T01:24:13.305Z,5.50
2018-07-10T01:26:42.396Z,6.75
2018-07-10T01:29:19.467Z,4.72
2018-07-10T01:31:52.292Z,4.65
2018-07-10T01:34:21.125Z,4.83
2018-07-10T01:36:49.808Z,5.08
2018-07-10T01:39:18.350Z,3.65
2018-07-10T01:41:46.834Z,5.12
2018-07-10T01:44:15.243Z,4.28
2018-07-10T01:46:44.469Z,5.33
2018-07-10T01:49:12.960Z,5.05
2018-07-10T01:51:41.437Z,4.78
2018-07-10T01:54:09.897Z,5.85
2018-07-10T01:56:38.451Z,5.00
2018-07-10T01:59:06.950Z,3.60
2018-07-10T02:01:35.454Z,4.83
2018-07-10T02:04:03.937Z,4.55
2018-07-10T02:06:32.361Z,4.47
2018-07-10T02:09:00.958Z,4.25
2018-07-10T02:11:29.425Z,4.50
2018-07-10T02:13:58.003Z,5.65
2018-07-10T02:16:26.387Z,5.87
2018-07-10T02:18:55.463Z,5.92
2018-07-10T02:21:24.089Z,7.22
2018-07-10T02:23:53.346Z,5.70
2018-07-10T02:26:27.770Z,4.42
2018-07-10T02:28:56.930Z,7.45
2018-07-10T02:31:25.473Z,6.72
2018-07-10T02:33:54.331Z,4.30
2018-07-10T02:36:23.586Z,6.62
2018-07-10T02:38:59.771Z,8.03
2018-07-10T02:41:28.933Z,7.10
2018-07-10T02:44:04.678Z,5.47
2018-07-10T02:46:36.505Z,6.62
2018-07-10T02:49:17.193Z,5.45
2018-07-10T02:52:00.971Z,6.00
2018-07-10T02:54:38.871Z,6.60
2018-07-10T02:57:09.126Z,6.45
2018-07-10T02:59:40.864Z,9.03
2018-07-10T03:02:18.616Z,3.75
2018-07-10T03:04:47.411Z,5.90
2018-07-10T03:07:16.745Z,5.97
2018-07-10T03:09:46.840Z,3.52
2018-07-10T03:12:16.564Z,6.72
2018-07-10T03:14:45.565Z,6.92
2018-07-10T03:17:17.084Z,6.12
2018-07-10T03:19:45.580Z,6.08
2018-07-10T03:22:14.736Z,5.20
2018-07-10T03:24:43.344Z,5.05
2018-07-10T03:27:11.816Z,6.75
2018-07-10T03:29:40.429Z,5.70
2018-07-10T03:32:09.004Z,7.00
2018-07-10T03:34:37.829Z,3.95
2018-07-10T03:37:06.353Z,7.90
2018-07-10T03:39:36.908Z,3.65
2018-07-10T03:42:05.416Z,4.87
2018-07-10T03:44:33.993Z,5.65
2018-07-10T03:47:02.472Z,5.10
2018-07-10T03:49:30.949Z,4.45
2018-07-10T03:52:01.433Z,5.83
2018-07-10T03:54:30.408Z,6.33
2018-07-10T03:56:58.917Z,4.85
2018-07-10T03:59:28.262Z,5.30
2018-07-10T04:01:56.796Z,3.75
2018-07-10T04:04:25.361Z,6.30
2018-07-10T04:06:54.085Z,5.10
2018-07-10T04:09:22.529Z,5.40
2018-07-10T04:11:51.497Z,3.40
2018-07-10T04:14:22.060Z,5.50
2018-07-10T04:16:50.541Z,3.67
2018-07-10T04:19:19.440Z,2.25
2018-07-10T04:21:53.970Z,6.97
2018-07-10T04:24:22.962Z,3.33
2018-07-10T04:27:05.731Z,3.50
2018-07-10T04:29:49.423Z,5.15
2018-07-10T04:32:18.005Z,5.00
2018-07-10T04:34:49.121Z,5.50
2018-07-10T04:37:17.604Z,5.17
2018-07-10T04:39:46.181Z,10.63
2018-07-10T04:42:26.765Z,5.47
2018-07-10T04:45:16.352Z,7.17
2018-07-10T04:47:52.271Z,4.85
2018-07-10T04:50:24.355Z,4.42
2018-07-10T04:52:58.896Z,6.15
2018-07-10T04:55:27.395Z,3.40
2018-07-10T04:58:03.104Z,4.47
2018-07-10T05:00:33.144Z,4.10
2018-07-10T05:03:02.669Z,4.33
2018-07-10T05:05:33.100Z,5.90
2018-07-10T05:08:04.446Z,6.80
2018-07-10T05:10:34.484Z,6.00
2018-07-10T05:13:03.264Z,5.42
2018-07-10T05:15:31.853Z,3.55
2018-07-10T05:18:04.194Z,8.53
2018-07-10T05:20:32.708Z,5.90
2018-07-10T05:23:01.171Z,6.00
2018-07-10T05:25:29.700Z,6.78
2018-07-10T05:27:59.309Z,6.60
2018-07-10T05:30:27.800Z,7.30
2018-07-10T05:32:56.289Z,5.55
2018-07-10T05:35:24.784Z,4.55
2018-07-10T05:37:53.208Z,4.87
2018-07-10T05:40:26.982Z,5.75
2018-07-10T05:42:55.448Z,5.37
2018-07-10T05:45:25.117Z,6.75
2018-07-10T05:47:57.904Z,6.22
2018-07-10T05:50:30.768Z,5.25
2018-07-10T05:52:59.240Z,5.17
2018-07-10T05:55:29.284Z,4.67
2018-07-10T05:57:59.008Z,6.53
2018-07-10T06:00:28.057Z,4.70
2018-07-10T06:02:56.575Z,7.42
2018-07-10T06:05:25.989Z,5.33
2018-07-10T06:07:54.488Z,6.08
2018-07-10T06:10:24.269Z,8.88
2018-07-10T06:12:52.788Z,6.42
2018-07-10T06:15:21.338Z,6.33
2018-07-10T06:17:50.693Z,7.40
2018-07-10T06:20:20.015Z,7.83
2018-07-10T06:22:48.772Z,7.55
2018-07-10T06:25:17.320Z,5.08
2018-07-10T06:27:51.064Z,5.90
2018-07-10T06:30:19.580Z,7.42
2018-07-10T06:33:06.184Z,6.25
2018-07-10T06:36:44.280Z,4.70
2018-07-10T06:39:14.663Z,5.22
2018-07-10T06:41:55.185Z,5.17
2018-07-10T06:44:25.109Z,7.37
2018-07-10T06:46:55.628Z,6.05
2018-07-10T06:49:31.710Z,5.30
2018-07-10T06:52:03.150Z,8.10
2018-07-10T06:54:32.822Z,8.03
2018-07-10T06:57:02.160Z,4.20
2018-07-10T06:59:30.642Z,6.05
2018-07-10T07:01:59.177Z,6.30
2018-07-10T07:04:27.698Z,7.80
2018-07-10T07:06:56.248Z,7.50
2018-07-10T07:09:24.721Z,7.87
2018-07-10T07:11:53.178Z,5.75
2018-07-10T07:14:21.673Z,8.00
2018-07-10T07:16:50.171Z,5.83
2018-07-10T07:19:19.257Z,4.87
2018-07-10T07:21:47.716Z,5.03
2018-07-10T07:24:16.475Z,4.00
2018-07-10T07:26:45.136Z,4.75
2018-07-10T07:29:14.064Z,4.28
2018-07-10T07:31:42.696Z,4.05
2018-07-10T07:34:11.238Z,3.27
2018-07-10T07:36:39.829Z,2.77
2018-07-10T07:39:08.715Z,4.08
2018-07-10T07:41:37.317Z,3.22
2018-07-10T07:44:06.283Z,4.55
2018-07-10T07:46:35.361Z,4.37
2018-07-10T07:49:04.992Z,4.17
2018-07-10T07:51:33.569Z,3.92
2018-07-10T07:54:02.640Z,3.98
2018-07-10T07:56:31.225Z,4.30
2018-07-10T07:58:59.708Z,5.20
2018-07-10T08:01:28.372Z,3.37
2018-07-10T08:03:56.934Z,2.60
2018-07-10T08:06:25.437Z,4.37
2018-07-10T08:08:54.046Z,2.08
2018-07-10T08:11:22.517Z,2.08
2018-07-10T08:13:51.730Z,2.77
2018-07-10T08:16:20.320Z,2.83
2018-07-10T08:18:49.429Z,2.27
2018-07-10T08:21:18.140Z,2.45
2018-07-10T08:23:46.793Z,2.47
2018-07-10T08:26:15.424Z,3.50
2018-07-10T08:28:44.417Z,2.72
2018-07-10T08:31:13.809Z,2.30
2018-07-10T08:33:42.459Z,2.75
2018-07-10T08:36:11.492Z,3.22
2018-07-10T08:38:41.890Z,3.33
2018-07-10T08:41:23.141Z,3.47
2018-07-10T08:43:52.163Z,2.55
2018-07-10T08:46:26.385Z,3.87
2018-07-10T08:48:55.577Z,3.55
2018-07-10T08:51:24.187Z,4.90
2018-07-10T08:53:54.396Z,7.60
2018-07-10T08:56:24.173Z,3.90
2018-07-10T08:58:53.610Z,4.62
2018-07-10T09:01:22.157Z,3.77
2018-07-10T09:03:51.314Z,5.47
2018-07-10T09:06:20.860Z,4.28
2018-07-10T09:08:50.336Z,5.20
2018-07-10T09:11:18.850Z,4.65
2018-07-10T09:13:47.611Z,4.30
2018-07-10T09:16:16.120Z,4.83
2018-07-10T09:18:45.287Z,7.28
2018-07-10T09:21:14.521Z,8.95
2018-07-10T09:23:43.153Z,5.12
2018-07-10T09:26:11.941Z,8.63
2018-07-10T09:28:40.522Z,6.50
2018-07-10T09:31:09.109Z,5.10
2018-07-10T09:33:39.850Z,5.87
2018-07-10T09:36:08.452Z,7.00
2018-07-10T09:38:37.658Z,5.22
2018-07-10T09:41:08.017Z,7.10
2018-07-10T09:43:38.337Z,4.87
2018-07-10T09:46:07.169Z,4.90
2018-07-10T09:48:35.842Z,6.12
2018-07-10T09:51:04.436Z,5.97
2018-07-10T09:53:33.020Z,5.08
2018-07-10T09:56:01.528Z,5.25
2018-07-10T09:58:32.021Z,4.17
2018-07-10T10:01:06.696Z,5.12
2018-07-10T10:03:35.188Z,4.22
2018-07-10T10:06:04.709Z,4.90
2018-07-10T10:08:33.296Z,4.90
2018-07-10T10:11:01.903Z,5.75
2018-07-10T10:13:30.684Z,5.87
2018-07-10T10:15:59.309Z,7.28
2018-07-10T10:18:28.457Z,5.50
2018-07-10T10:20:56.948Z,11.12
2018-07-10T10:23:25.101Z,6.55
2018-07-10T10:25:54.461Z,7.12
2018-07-10T10:28:24.001Z,6.97
2018-07-10T10:30:52.736Z,8.13
2018-07-10T10:33:21.330Z,8.83
2018-07-10T10:35:50.178Z,11.05
2018-07-10T10:38:19.168Z,9.08
2018-07-10T10:40:49.877Z,11.38
2018-07-10T10:43:18.388Z,9.98
2018-07-10T10:45:46.876Z,7.37
2018-07-10T10:48:16.624Z,7.03
2018-07-10T10:50:50.600Z,7.28
2018-07-10T10:53:20.087Z,7.58
2018-07-10T10:55:48.792Z,11.00
2018-07-10T10:58:17.966Z,7.97
2018-07-10T11:00:46.585Z,8.10
2018-07-10T11:03:14.975Z,5.90
2018-07-10T11:05:45.460Z,6.00
2018-07-10T11:08:14.695Z,5.42
2018-07-10T11:10:44.079Z,5.95
2018-07-10T11:13:14.960Z,5.90
2018-07-10T11:15:44.609Z,5.30
2018-07-10T11:19:22.023Z,5.20
2018-07-10T11:21:57.981Z,5.05
2018-07-10T11:24:27.141Z,7.42
2018-07-10T11:26:55.835Z,7.22
2018-07-10T11:29:24.332Z,6.15
2018-07-10T11:31:52.952Z,6.03
2018-07-10T11:34:22.320Z,6.90
2018-07-10T11:36:51.765Z,7.20
2018-07-10T11:39:21.013Z,5.03
2018-07-10T11:41:52.004Z,4.70
2018-07-10T11:44:20.574Z,5.95
2018-07-10T11:46:49.854Z,6.60
2018-07-10T11:49:18.656Z,5.45
2018-07-10T11:51:47.179Z,5.42
2018-07-10T11:54:15.824Z,5.80
2018-07-10T11:56:44.426Z,4.85
2018-07-10T11:59:13.174Z,6.97
2018-07-10T12:01:41.750Z,4.72
2018-07-10T12:04:10.340Z,3.95
2018-07-10T12:06:45.621Z,6.95
2018-07-10T12:09:14.654Z,5.40
2018-07-10T12:11:43.884Z,6.62
2018-07-10T12:14:12.440Z,4.60
2018-07-10T12:16:40.933Z,4.20
2018-07-10T12:19:09.483Z,3.80
2018-07-10T12:21:38.195Z,5.67
2018-07-10T12:24:07.051Z,6.20
2018-07-10T12:26:37.206Z,4.67
2018-07-10T12:29:05.741Z,5.25
2018-07-10T12:31:34.281Z,5.47
2018-07-10T12:34:03.016Z,6.17
2018-07-10T12:36:31.532Z,6.22
2018-07-10T12:39:00.066Z,7.42
2018-07-10T12:41:28.768Z,6.10
2018-07-10T12:43:57.296Z,9.43
2018-07-10T12:46:25.792Z,9.55
2018-07-10T12:48:54.300Z,8.45
2018-07-10T12:51:23.273Z,9.50
2018-07-10T12:53:51.779Z,12.37
2018-07-10T12:56:20.279Z,10.43
2018-07-10T12:58:49.498Z,11.93
2018-07-10T13:01:17.973Z,9.70
2018-07-10T13:03:47.637Z,9.00
2018-07-10T13:06:16.244Z,9.58
2018-07-10T13:08:44.792Z,7.95
2018-07-10T13:11:13.303Z,10.50
2018-07-10T13:13:41.782Z,11.00
2018-07-10T13:16:10.304Z,10.68
2018-07-10T13:18:40.237Z,8.35
2018-07-10T13:21:08.757Z,7.78
2018-07-10T13:23:37.617Z,7.92
2018-07-10T13:26:06.348Z,7.67
2018-07-10T13:28:34.892Z,6.90
2018-07-10T13:31:03.413Z,8.20
2018-07-10T13:33:32.124Z,6.30
2018-07-10T13:36:00.717Z,7.12
2018-07-10T13:38:29.925Z,5.45
2018-07-10T13:41:00.330Z,5.28
2018-07-10T13:43:29.044Z,6.10
2018-07-10T13:45:57.521Z,5.35
2018-07-10T13:48:26.085Z,6.67
2018-07-10T13:50:55.041Z,7.65
2018-07-10T13:53:23.587Z,9.75
2018-07-10T13:55:52.231Z,6.70
2018-07-10T13:58:26.887Z,7.30
2018-07-10T14:01:03.602Z,7.78
2018-07-10T14:03:32.253Z,8.88
2018-07-10T14:06:00.905Z,7.53
2018-07-10T14:08:29.351Z,10.85
2018-07-10T14:10:57.865Z,10.55
2018-07-10T14:13:26.413Z,9.80
2018-07-10T14:15:55.256Z,9.10
2018-07-10T14:18:23.893Z,12.37
2018-07-10T14:20:55.244Z,12.50
2018-07-10T14:23:24.456Z,9.98
2018-07-10T14:25:53.336Z,9.95
2018-07-10T14:28:21.948Z,8.78
2018-07-10T14:30:50.448Z,9.30
2018-07-10T14:33:19.414Z,10.38
2018-07-10T14:35:47.992Z,10.10
2018-07-10T14:38:21.187Z,9.93
2018-07-10T14:40:50.907Z,9.90
2018-07-10T14:43:23.437Z,9.73
2018-07-10T14:45:53.082Z,7.90
2018-07-10T14:48:23.725Z,7.12
2018-07-10T14:50:54.438Z,6.08
2018-07-10T14:53:23.165Z,6.12
2018-07-10T14:55:51.717Z,8.20
2018-07-10T14:58:20.816Z,6.45
2018-07-10T15:00:49.821Z,4.75
2018-07-10T15:03:18.379Z,5.10
2018-07-10T15:05:46.840Z,4.35
2018-07-10T15:08:15.481Z,3.67
2018-07-10T15:10:44.589Z,6.80
2018-07-10T15:13:13.258Z,4.83
2018-07-10T15:15:41.937Z,6.78
2018-07-10T15:18:15.860Z,8.70
2018-07-10T15:20:44.648Z,10.50
2018-07-10T15:23:13.280Z,11.88
2018-07-10T15:25:42.481Z,9.30
2018-07-10T15:28:11.092Z,9.48
2018-07-10T15:30:39.687Z,8.33
2018-07-10T15:33:08.488Z,8.38
2018-07-10T15:35:37.053Z,8.45
2018-07-10T15:38:06.253Z,8.53
2018-07-10T15:40:34.681Z,8.48
2018-07-10T15:43:03.344Z,8.40
2018-07-10T15:45:31.909Z,9.20
2018-07-10T15:48:00.300Z,9.58
2018-07-10T15:50:28.853Z,9.45
2018-07-10T15:52:57.317Z,8.85
2018-07-10T15:55:25.809Z,9.45
2018-07-10T15:57:54.951Z,10.50
2018-07-10T16:00:23.528Z,9.20
2018-07-10T16:02:52.139Z,8.68
2018-07-10T16:05:20.777Z,9.13
2018-07-10T16:07:49.391Z,9.98
2018-07-10T16:10:18.688Z,8.35
2018-07-10T16:12:47.248Z,7.67
2018-07-10T16:15:15.864Z,8.78
2018-07-10T16:17:44.435Z,8.93
2018-07-10T16:20:12.981Z,9.80
2018-07-10T16:22:42.897Z,8.58
2018-07-10T16:25:21.459Z,8.18
2018-07-10T16:27:50.757Z,5.20
2018-07-10T16:30:22.300Z,4.70
2018-07-10T16:32:51.108Z,8.13
2018-07-10T16:35:22.308Z,6.20
2018-07-10T16:37:51.373Z,5.75
2018-07-10T16:40:19.937Z,7.25
2018-07-10T16:42:52.361Z,5.65
2018-07-10T16:45:26.034Z,4.47
2018-07-10T16:48:11.732Z,4.67
2018-07-10T16:50:42.409Z,3.70
2018-07-10T16:53:13.753Z,5.50
2018-07-10T16:55:42.324Z,3.37
2018-07-10T16:58:10.920Z,2.67
2018-07-10T17:00:39.441Z,1.90
2018-07-10T17:03:07.996Z,2.10
2018-07-10T17:05:36.591Z,1.55
2018-07-10T17:08:05.148Z,1.90
2018-07-10T17:10:33.642Z,1.90
2018-07-10T17:13:02.597Z,1.70
2018-07-10T17:15:31.090Z,1.60
2018-07-10T17:17:59.834Z,1.40
2018-07-10T17:20:28.490Z,1.90
2018-07-10T17:22:57.060Z,1.22
2018-07-10T17:25:25.627Z,1.35
2018-07-10T17:27:54.449Z,1.25
2018-07-10T17:30:23.021Z,1.42
2018-07-10T17:32:51.493Z,1.50
2018-07-10T17:35:20.025Z,1.70
2018-07-10T17:37:49.800Z,1.35
2018-07-10T17:40:19.333Z,1.60
2018-07-10T17:42:48.836Z,2.40
2018-07-10T17:45:19.954Z,2.60
2018-07-10T17:47:49.045Z,2.27
2018-07-10T17:50:17.608Z,1.55
2018-07-10T17:52:46.521Z,1.92
2018-07-10T17:55:16.052Z,2.35
2018-07-10T17:57:45.081Z,2.22
2018-07-10T18:00:13.788Z,4.10
2018-07-10T18:02:42.432Z,6.55
2018-07-10T18:05:10.983Z,2.52
2018-07-10T18:07:39.739Z,2.22
2018-07-10T18:10:08.394Z,2.70
2018-07-10T18:12:37.440Z,2.65
2018-07-10T18:15:06.241Z,3.20
2018-07-10T18:17:34.743Z,3.30
2018-07-10T18:20:03.355Z,2.90
2018-07-10T18:22:31.939Z,3.22
2018-07-10T18:25:00.634Z,3.95
2018-07-10T18:27:29.172Z,4.35
2018-07-10T18:29:57.745Z,5.42
2018-07-10T18:32:27.058Z,5.17
2018-07-10T18:34:55.600Z,6.30
2018-07-10T18:37:24.150Z,6.58
2018-07-10T18:39:52.665Z,6.50
2018-07-10T18:42:21.721Z,6.30
2018-07-10T18:44:50.790Z,6.30
2018-07-10T18:47:19.612Z,6.65
2018-07-10T18:49:51.347Z,6.47
2018-07-10T18:52:23.856Z,6.40
2018-07-10T18:54:52.730Z,6.70
2018-07-10T18:57:38.296Z,7.60
2018-07-10T19:00:07.489Z,7.50
2018-07-10T19:02:43.737Z,7.75
2018-07-10T19:05:12.309Z,6.30
2018-07-10T19:07:42.546Z,7.10
2018-07-10T19:10:11.349Z,8.60
2018-07-10T19:12:40.727Z,7.15
2018-07-10T19:15:09.549Z,7.80
2018-07-10T19:17:38.061Z,6.58
2018-07-10T19:20:09.167Z,7.20
2018-07-10T19:23:20.275Z,7.28
2018-07-10T19:25:48.820Z,7.40
2018-07-10T19:28:17.422Z,7.25
2018-07-10T19:30:52.253Z,7.67
2018-07-10T19:33:21.457Z,8.48
2018-07-10T19:35:50.771Z,9.60
2018-07-10T19:38:19.401Z,12.15
2018-07-10T19:40:48.516Z,9.68
2018-07-10T19:43:17.258Z,8.88
2018-07-10T19:45:45.841Z,8.48
2018-07-10T19:48:15.401Z,8.65
2018-07-10T19:50:44.537Z,8.43
2018-07-10T19:53:13.310Z,8.48
2018-07-10T19:55:44.352Z,8.33
2018-07-10T19:58:30.928Z,7.97
2018-07-10T20:02:11.225Z,8.18
2018-07-10T20:05:01.025Z,7.60
2018-07-10T20:07:51.806Z,8.45
2018-07-10T20:10:31.069Z,8.03
2018-07-10T20:13:17.497Z,21.65
2018-07-10T20:16:27.932Z,7.53
2018-07-10T20:19:14.681Z,7.47
2018-07-10T20:22:08.603Z,8.68
2018-07-10T20:24:41.181Z,7.40
2018-07-10T20:28:14.202Z,7.42
2018-07-10T20:30:57.211Z,8.10
2018-07-10T20:33:46.756Z,8.83
2018-07-10T20:36:22.252Z,13.98
2018-07-10T20:38:52.025Z,11.05
2018-07-10T20:41:22.773Z,10.55
2018-07-10T20:43:52.235Z,10.00
2018-07-10T20:46:21.473Z,11.08
2018-07-10T20:48:55.641Z,10.88
2018-07-10T20:51:31.533Z,34.35
2018-07-10T20:54:08.386Z,15.85
2018-07-10T20:57:15.528Z,12.55
2018-07-10T20:59:46.054Z,11.95
2018-07-10T21:02:29.328Z,11.68
2018-07-10T21:05:06.396Z,10.88
2018-07-10T21:07:36.851Z,10.50
2018-07-10T21:10:28.816Z,12.73
2018-07-10T21:13:07.060Z,10.82
2018-07-10T21:16:46.030Z,10.90
2018-07-10T21:19:26.757Z,12.20
2018-07-10T21:22:13.379Z,11.35
2018-07-10T21:24:48.466Z,11.38
2018-07-10T21:27:30.011Z,12.30
2018-07-10T21:30:18.602Z,12.40
2018-07-10T21:33:04.521Z,12.37
2018-07-10T21:36:46.292Z,12.43
2018-07-10T21:39:26.712Z,11.73
2018-07-10T21:42:22.041Z,13.32
2018-07-10T21:45:57.394Z,12.78
2018-07-10T21:48:31.857Z,12.53
2018-07-10T21:51:00.310Z,14.13
2018-07-10T21:53:28.841Z,11.78
2018-07-10T21:55:57.352Z,13.35
2018-07-10T21:58:26.493Z,12.40
2018-07-10T22:01:59.961Z,11.90
2018-07-10T22:04:30.280Z,12.68
2018-07-10T22:07:00.010Z,11.80
2018-07-10T22:09:30.804Z,11.60
2018-07-10T22:12:01.415Z,12.20
2018-07-10T22:14:29.978Z,12.55
2018-07-10T22:16:58.877Z,12.10
2018-07-10T22:19:28.594Z,11.70
2018-07-10T22:21:57.456Z,12.55
2018-07-10T22:24:27.348Z,11.73
2018-07-10T22:26:57.379Z,11.50
2018-07-10T22:29:31.320Z,12.37
2018-07-10T22:32:01.995Z,11.65
2018-07-10T22:34:31.824Z,14.15
2018-07-10T22:37:00.433Z,12.03
2018-07-10T22:39:29.401Z,12.47
2018-07-10T22:42:00.269Z,12.75
2018-07-10T22:44:32.014Z,12.45
2018-07-10T22:47:00.559Z,14.10
2018-07-10T22:49:29.002Z,12.40
2018-07-10T22:52:00.284Z,13.50
2018-07-10T22:54:29.332Z,13.65
2018-07-10T22:56:58.239Z,14.20
2018-07-10T22:59:26.768Z,13.95
2018-07-10T23:01:55.288Z,15.83
2018-07-10T23:04:23.769Z,13.95
2018-07-10T23:06:52.492Z,14.13
2018-07-10T23:09:20.972Z,16.40
2018-07-10T23:11:49.609Z,18.32
2018-07-10T23:14:17.734Z,16.07
2018-07-10T23:16:46.326Z,14.93
2018-07-10T23:19:14.848Z,15.05
2018-07-10T23:21:43.360Z,15.48
2018-07-10T23:24:11.953Z,14.43
2018-07-10T23:26:41.889Z,15.03
2018-07-10T23:29:11.045Z,14.38
2018-07-10T23:31:42.163Z,14.15
2018-07-10T23:34:20.285Z,14.63
2018-07-10T23:36:52.395Z,13.78
2018-07-10T23:39:27.863Z,14.95
2018-07-10T23:42:02.015Z,15.38
2018-07-10T23:44:36.844Z,16.48
2018-07-10T23:47:11.808Z,15.88
2018-07-10T23:49:40.649Z,15.88
2018-07-10T23:52:21.897Z,17.30
2018-07-10T23:54:50.473Z,15.20
2018-07-10T23:57:19.264Z,15.48
2018-07-10T23:59:47.682Z,16.82
